Time;durP1;ratioP1;P1;durP2;ratioP2;P2;SDS_P1;SDS_P2;PMS_P1;PMS_P2;Temp;Humidity;BMP_temperature;BMP_pressure;BME280_temperature;BME280_humidity;BME280_pressure;Samples;Min_cycle;Max_cycle;Signal;HPM_P1;HPM_P2
2023/03/16 00:00:25;;;;;;;8.07;3.92;;;;;;;-1.57;93.82;101591.75;7395540;19;20070;-70
2023/03/16 00:02:54;;;;;;;8.40;3.75;;;;;;;-1.59;93.99;101595.97;7395016;19;20018;-72
2023/03/16 00:05:24;;;;;;;13.95;4.43;;;;;;;-1.60;93.76;101599.38;7393547;19;20019;-71
2023/03/16 00:07:53;;;;;;;9.05;4.18;;;;;;;-1.62;93.83;101603.56;7395784;19;20083;-71
2023/03/16 00:10:26;;;;;;;8.65;4.43;;;;;;;-1.64;93.62;101605.22;7394989;19;20014;-72
2023/03/16 00:12:58;;;;;;;8.88;3.95;;;;;;;-1.66;93.89;101609.41;7395105;19;20023;-71
2023/03/16 00:15:26;;;;;;;9.15;3.95;;;;;;;-1.68;94.09;101614.50;7394771;19;20423;-71
2023/03/16 00:17:55;;;;;;;9.73;3.80;;;;;;;-1.71;93.90;101604.06;7394061;19;20018;-72
2023/03/16 00:20:24;;;;;;;10.60;3.97;;;;;;;-1.71;94.04;101613.47;7394946;19;20022;-71
2023/03/16 00:22:52;;;;;;;10.25;3.97;;;;;;;-1.72;93.68;101622.91;7392704;19;20014;-71
2023/03/16 00:25:23;;;;;;;10.02;3.70;;;;;;;-1.73;93.85;101622.81;7393539;19;20078;-71
2023/03/16 00:27:51;;;;;;;7.38;3.90;;;;;;;-1.75;93.98;101615.03;7395323;19;20011;-68
2023/03/16 00:30:22;;;;;;;8.80;3.65;;;;;;;-1.77;93.99;101621.78;7394421;19;20533;-71
2023/03/16 00:32:52;;;;;;;9.52;4.05;;;;;;;-1.77;93.77;101623.50;7394604;19;20036;-71
2023/03/16 00:35:21;;;;;;;8.50;3.47;;;;;;;-1.80;93.60;101619.97;7394332;19;20036;-71
2023/03/16 00:37:49;;;;;;;10.95;3.95;;;;;;;-1.80;93.77;101619.09;7394258;19;20028;-72
2023/03/16 00:40:18;;;;;;;8.75;3.83;;;;;;;-1.90;93.82;101610.09;7394595;19;20078;-74
2023/03/16 00:42:47;;;;;;;10.38;3.72;;;;;;;-1.83;93.77;101616.41;7394137;19;20025;-71
2023/03/16 00:45:15;;;;;;;7.95;3.47;;;;;;;-1.84;94.25;101618.09;7392661;19;20478;-72
2023/03/16 00:47:46;;;;;;;6.85;3.22;;;;;;;-1.86;93.96;101616.25;7395000;19;20035;-71
2023/03/16 00:50:15;;;;;;;6.90;3.55;;;;;;;-1.87;94.10;101623.13;7394622;19;20070;-71
2023/03/16 00:52:43;;;;;;;7.82;4.03;;;;;;;-1.89;94.21;101624.72;7392214;19;20028;-71
2023/03/16 00:55:12;;;;;;;10.57;4.40;;;;;;;-1.89;94.21;101622.16;7393618;19;20493;-72
2023/03/16 00:57:40;;;;;;;7.32;4.13;;;;;;;-1.91;94.35;101621.19;7393670;19;20042;-72
2023/03/16 01:00:14;;;;;;;10.73;3.80;;;;;;;-1.92;94.33;101628.84;7393984;19;20073;-72
2023/03/16 01:02:44;;;;;;;7.80;4.72;;;;;;;-1.94;94.42;101627.94;7394144;19;20022;-72
2023/03/16 01:05:16;;;;;;;9.23;3.90;;;;;;;-1.95;94.56;101628.75;7392683;19;20011;-72
2023/03/16 01:07:44;;;;;;;12.45;4.45;;;;;;;-1.97;94.30;101631.25;7392154;19;20018;-72
2023/03/16 01:10:14;;;;;;;10.80;3.95;;;;;;;-2.00;94.49;101625.97;7393757;19;20086;-72
2023/03/16 01:12:44;;;;;;;8.55;3.60;;;;;;;-2.01;94.39;101629.34;7399748;19;20482;-72
2023/03/16 01:15:13;;;;;;;8.60;4.00;;;;;;;-2.04;94.50;101624.94;7400966;19;20078;-72
2023/03/16 01:17:41;;;;;;;7.80;4.13;;;;;;;-2.05;94.54;101625.75;7399643;19;20407;-71
2023/03/16 01:20:18;;;;;;;6.90;4.18;;;;;;;-2.07;94.67;101629.97;7401270;19;20078;-72
2023/03/16 01:22:50;;;;;;;16.80;4.20;;;;;;;-2.08;94.80;101622.19;7400848;19;20035;-71
2023/03/16 01:25:19;;;;;;;8.25;4.47;;;;;;;-2.09;94.82;101631.56;7399591;19;20025;-72
2023/03/16 01:27:47;;;;;;;10.77;4.55;;;;;;;-2.09;94.62;101630.72;7400627;19;20018;-72
2023/03/16 01:30:16;;;;;;;12.18;5.10;;;;;;;-2.11;94.69;101625.50;7400447;19;20019;-71
2023/03/16 01:32:44;;;;;;;12.40;4.90;;;;;;;-2.11;94.89;101622.03;7400024;19;20089;-72
2023/03/16 01:35:13;;;;;;;7.57;4.03;;;;;;;-2.15;94.99;101619.34;7400319;19;20533;-72
2023/03/16 01:37:42;;;;;;;8.00;4.45;;;;;;;-2.14;95.35;101621.09;7399921;19;20078;-71
2023/03/16 01:40:14;;;;;;;9.07;4.55;;;;;;;-2.15;95.47;101616.78;7400146;19;20027;-71
2023/03/16 01:42:47;;;;;;;13.07;5.10;;;;;;;-2.15;95.35;101619.34;7400083;19;20019;-71
2023/03/16 01:45:45;;;;;;;14.75;5.55;;;;;;;-2.15;95.39;101609.06;7399093;19;20042;-72
2023/03/16 01:48:13;;;;;;;11.35;4.63;;;;;;;-2.16;95.52;101611.53;7398888;19;20014;-72
2023/03/16 01:50:43;;;;;;;9.18;5.20;;;;;;;-2.17;95.25;101617.50;7399787;19;20078;-71
2023/03/16 01:53:12;;;;;;;11.68;5.55;;;;;;;-2.19;95.36;101614.84;7398581;19;20474;-72
2023/03/16 01:55:44;;;;;;;11.02;5.68;;;;;;;-2.21;95.51;101616.50;7402552;19;20035;-72
2023/03/16 01:58:13;;;;;;;8.07;4.57;;;;;;;-2.22;95.36;101619.88;7400098;19;20431;-72
2023/03/16 02:00:44;;;;;;;12.18;5.78;;;;;;;-2.23;95.46;101614.66;7403143;19;20377;-72
2023/03/16 02:03:17;;;;;;;13.70;6.30;;;;;;;-2.27;95.42;101610.19;7399320;19;20025;-72
2023/03/16 02:05:51;;;;;;;12.65;5.78;;;;;;;-2.29;95.29;101610.13;7397409;19;20031;-72
2023/03/16 02:08:21;;;;;;;19.52;6.55;;;;;;;-2.31;95.59;101609.19;7399761;19;20022;-71
2023/03/16 02:10:53;;;;;;;9.13;5.97;;;;;;;-2.34;95.63;101609.94;7398790;19;20007;-72
2023/03/16 02:13:22;;;;;;;11.77;5.40;;;;;;;-2.36;95.70;101608.09;7399217;19;20023;-67
2023/03/16 02:15:51;;;;;;;12.23;5.93;;;;;;;-2.37;95.64;101609.78;7398821;19;20085;-68
2023/03/16 02:18:33;;;;;;;10.45;5.88;;;;;;;-2.39;95.79;101603.72;7395901;19;20031;-68
2023/03/16 02:21:08;;;;;;;12.90;6.32;;;;;;;-2.39;95.68;101602.81;7397228;19;20074;-67
2023/03/16 02:23:37;;;;;;;13.85;6.28;;;;;;;-2.40;95.88;101603.63;7395195;19;20035;-67
2023/03/16 02:26:16;;;;;;;7.38;4.82;;;;;;;-2.41;96.10;101604.41;7396932;19;20019;-67
2023/03/16 02:28:53;;;;;;;15.05;6.68;;;;;;;-2.41;96.02;101607.00;7396910;19;20086;-67
2023/03/16 02:31:24;;;;;;;12.57;6.47;;;;;;;-2.46;95.52;101602.53;7398229;19;20090;-67
2023/03/16 02:33:55;;;;;;;8.30;5.20;;;;;;;-2.48;95.76;101604.16;7397124;19;20023;-67
2023/03/16 02:36:24;;;;;;;10.57;5.63;;;;;;;-2.52;95.72;101604.81;7398033;19;20511;-67
2023/03/16 02:38:52;;;;;;;10.52;5.63;;;;;;;-2.54;95.48;101600.41;7397809;19;20433;-67
2023/03/16 02:41:22;;;;;;;15.02;5.90;;;;;;;-2.57;96.07;101605.44;7398123;19;20086;-67
2023/03/16 02:43:55;;;;;;;7.93;5.20;;;;;;;-2.59;95.85;101601.91;7396474;19;20474;-67
2023/03/16 02:46:34;;;;;;;12.80;6.63;;;;;;;-2.61;96.10;101604.41;7395957;19;20082;-67
2023/03/16 02:49:07;;;;;;;11.35;6.07;;;;;;;-2.62;96.28;101613.81;7398109;19;20041;-67
2023/03/16 02:51:36;;;;;;;10.50;5.93;;;;;;;-2.66;96.32;101605.88;7398246;19;20077;-67
2023/03/16 02:54:05;;;;;;;13.77;6.72;;;;;;;-2.65;96.44;101612.78;7396463;19;20455;-67
2023/03/16 02:56:33;;;;;;;12.98;6.43;;;;;;;-2.67;96.49;101615.25;7402714;19;20015;-67
2023/03/16 02:59:02;;;;;;;18.00;6.55;;;;;;;-2.68;96.36;101610.06;7396225;19;20014;-67
2023/03/16 03:01:35;;;;;;;11.57;6.00;;;;;;;-2.69;96.26;101613.44;7397531;19;20015;-67
2023/03/16 03:04:04;;;;;;;10.93;6.10;;;;;;;-2.70;96.37;101616.84;7395952;19;20490;-67
2023/03/16 03:06:32;;;;;;;10.50;6.60;;;;;;;-2.71;96.47;101617.63;7395688;19;20025;-67
2023/03/16 03:09:01;;;;;;;15.52;6.70;;;;;;;-2.72;96.63;101621.00;7396785;19;20011;-67
2023/03/16 03:11:30;;;;;;;10.35;6.00;;;;;;;-2.72;96.63;101623.59;7394947;19;20018;-68
2023/03/16 03:13:58;;;;;;;10.82;5.93;;;;;;;-2.73;96.58;101635.56;7395308;19;20070;-67
2023/03/16 03:16:27;;;;;;;16.15;7.90;;;;;;;-2.73;96.29;101634.66;7396789;19;20078;-68
2023/03/16 03:18:58;;;;;;;12.82;6.82;;;;;;;-2.76;96.79;101637.09;7396232;19;20030;-68
2023/03/16 03:21:27;;;;;;;13.18;7.50;;;;;;;-2.78;96.40;101643.03;7399527;19;20032;-68
2023/03/16 03:23:56;;;;;;;13.80;7.88;;;;;;;-2.80;96.68;101644.66;7397234;19;20020;-68
2023/03/16 03:26:24;;;;;;;15.95;8.70;;;;;;;-2.79;96.58;101645.53;7396295;19;20086;-68
2023/03/16 03:28:54;;;;;;;19.42;8.77;;;;;;;-2.81;96.60;101645.44;7396115;19;20541;-68
2023/03/16 03:31:24;;;;;;;16.35;7.78;;;;;;;-2.81;96.56;101647.16;7396351;19;20018;-68
2023/03/16 03:33:52;;;;;;;19.08;9.93;;;;;;;-2.82;96.40;101648.84;7393738;19;20506;-68
2023/03/16 03:36:23;;;;;;;16.08;8.73;;;;;;;-2.83;96.49;101649.66;7394540;19;20031;-68
2023/03/16 03:38:53;;;;;;;17.30;8.95;;;;;;;-2.84;96.72;101647.88;7396387;19;20348;-66
2023/03/16 03:41:22;;;;;;;15.48;9.38;;;;;;;-2.84;96.53;101647.00;7394057;19;20517;-67
2023/03/16 03:43:50;;;;;;;21.02;11.55;;;;;;;-2.85;96.69;101651.25;7394382;19;20096;-67
2023/03/16 03:46:18;;;;;;;24.25;11.57;;;;;;;-2.87;96.39;101647.75;7394382;19;20430;-67
2023/03/16 03:48:47;;;;;;;20.95;11.05;;;;;;;-2.87;96.80;101645.19;7395844;19;20086;-68
2023/03/16 03:51:15;;;;;;;19.58;11.30;;;;;;;-2.90;96.69;101645.03;7395161;19;20514;-67
2023/03/16 03:53:46;;;;;;;21.65;12.07;;;;;;;-2.89;96.72;101639.09;7394572;19;20022;-67
2023/03/16 03:56:15;;;;;;;20.50;12.02;;;;;;;-2.91;96.77;101640.69;7395955;19;20031;-68
2023/03/16 03:58:43;;;;;;;28.25;12.73;;;;;;;-2.91;96.80;101638.13;7393662;19;20514;-68
2023/03/16 04:01:12;;;;;;;21.65;12.32;;;;;;;-2.92;96.87;101636.34;7395384;19;20031;-66
2023/03/16 04:03:40;;;;;;;27.38;12.27;;;;;;;-2.93;96.74;101638.84;7393296;19;20537;-67
2023/03/16 04:06:10;;;;;;;19.42;12.18;;;;;;;-2.95;96.88;101631.94;7393954;19;20375;-67
2023/03/16 04:08:38;;;;;;;24.95;12.75;;;;;;;-2.95;97.05;101633.66;7393533;19;20018;-66
2023/03/16 04:11:10;;;;;;;26.98;11.63;;;;;;;-3.01;96.84;101630.78;7395224;19;20078;-67
2023/03/16 04:13:40;;;;;;;26.23;11.95;;;;;;;-2.97;97.12;101635.25;7394448;19;20011;-66
2023/03/16 04:16:09;;;;;;;18.90;11.15;;;;;;;-2.98;97.38;101638.66;7394807;19;20018;-67
2023/03/16 04:18:39;;;;;;;21.27;10.75;;;;;;;-2.99;97.27;101631.75;7394160;19;20035;-68
2023/03/16 04:21:11;;;;;;;25.52;12.32;;;;;;;-3.00;97.23;101642.81;7393773;19;20025;-66
2023/03/16 04:23:41;;;;;;;23.10;10.27;;;;;;;-3.02;97.31;101641.84;7394318;19;20029;-67
2023/03/16 04:26:12;;;;;;;21.15;10.38;;;;;;;-3.02;97.07;101641.84;7393827;19;20107;-68
2023/03/16 04:28:42;;;;;;;20.42;10.20;;;;;;;-3.04;97.41;101646.06;7394986;19;20074;-68
2023/03/16 04:31:12;;;;;;;14.88;9.25;;;;;;;-3.05;97.20;101639.16;7394113;19;20010;-68
2023/03/16 04:33:41;;;;;;;22.35;10.45;;;;;;;-3.06;97.13;101645.09;7393535;19;20018;-69
2023/03/16 04:36:10;;;;;;;16.17;9.25;;;;;;;-3.08;97.21;101642.47;7393888;19;20078;-68
2023/03/16 04:38:40;;;;;;;18.42;8.23;;;;;;;-3.07;97.17;101643.31;7394279;19;20014;-68
2023/03/16 04:41:12;;;;;;;14.63;8.70;;;;;;;-3.07;97.29;101643.31;7394247;19;20017;-68
2023/03/16 04:43:42;;;;;;;17.67;8.50;;;;;;;-3.08;97.40;101642.47;7393146;19;20021;-67
2023/03/16 04:46:11;;;;;;;18.13;9.05;;;;;;;-3.07;97.37;101645.88;7393885;19;20019;-68
2023/03/16 04:48:39;;;;;;;16.90;7.22;;;;;;;-3.06;97.45;101650.22;7401766;19;20082;-67
2023/03/16 04:51:08;;;;;;;17.17;7.85;;;;;;;-3.07;97.52;101641.66;7401873;19;20035;-68
2023/03/16 04:53:37;;;;;;;17.30;7.47;;;;;;;-3.05;97.48;101650.28;7399967;19;20360;-67
2023/03/16 04:56:06;;;;;;;14.85;7.70;;;;;;;-3.05;97.63;101646.84;7398715;19;20077;-67
2023/03/16 04:58:37;;;;;;;14.82;7.50;;;;;;;-3.04;97.56;101635.78;7398471;19;20432;-67
2023/03/16 05:01:05;;;;;;;18.98;7.30;;;;;;;-3.04;97.55;101644.34;7398848;19;20022;-67
2023/03/16 05:03:34;;;;;;;14.98;8.05;;;;;;;-3.03;97.54;101651.25;7399681;19;20102;-68
2023/03/16 05:06:04;;;;;;;17.75;8.13;;;;;;;-3.01;97.47;101654.78;7400391;19;20019;-67
2023/03/16 05:08:32;;;;;;;16.25;8.00;;;;;;;-3.00;97.52;101653.97;7401102;19;20022;-68
2023/03/16 05:11:01;;;;;;;10.65;6.93;;;;;;;-2.98;97.64;101654.06;7401391;19;20077;-67
2023/03/16 05:13:29;;;;;;;11.85;7.03;;;;;;;-2.97;97.59;101660.94;7399898;19;20018;-67
2023/03/16 05:16:01;;;;;;;15.20;7.97;;;;;;;-2.97;97.92;101659.25;7400817;19;20419;-67
2023/03/16 05:18:29;;;;;;;12.75;7.45;;;;;;;-2.96;97.70;101661.03;7397247;19;20069;-67
2023/03/16 05:20:58;;;;;;;10.85;7.20;;;;;;;-2.94;97.66;101655.97;7398018;19;20031;-67
2023/03/16 05:23:26;;;;;;;13.43;6.60;;;;;;;-2.94;97.78;101650.81;7397940;19;20011;-66
2023/03/16 05:25:58;;;;;;;11.57;7.25;;;;;;;-2.89;97.63;101651.03;7399681;19;20073;-67
2023/03/16 05:28:27;;;;;;;14.45;7.22;;;;;;;-2.89;97.72;101657.06;7400262;19;20549;-66
2023/03/16 05:30:55;;;;;;;12.98;6.60;;;;;;;-2.85;97.93;101664.09;7400308;19;20035;-66
2023/03/16 05:33:26;;;;;;;14.55;7.97;;;;;;;-2.82;97.75;101668.50;7398588;19;20086;-68
2023/03/16 05:35:56;;;;;;;12.90;6.40;;;;;;;-2.80;97.71;101670.31;7400912;19;20010;-67
2023/03/16 05:38:26;;;;;;;11.07;7.38;;;;;;;-2.76;97.78;101665.34;7399445;19;20386;-67
2023/03/16 05:41:00;;;;;;;11.30;6.45;;;;;;;-2.74;97.68;101669.75;7399461;19;20020;-67
2023/03/16 05:43:29;;;;;;;15.85;7.28;;;;;;;-2.70;97.74;101668.22;7397210;19;20426;-68
2023/03/16 05:45:58;;;;;;;11.95;6.55;;;;;;;-2.68;97.33;101671.72;7399037;19;20011;-67
2023/03/16 05:48:29;;;;;;;15.90;6.85;;;;;;;-2.67;97.49;101674.34;7399553;19;20035;-66
2023/03/16 05:50:58;;;;;;;14.85;7.20;;;;;;;-2.65;97.49;101679.59;7399227;19;20475;-67
2023/03/16 05:53:27;;;;;;;14.82;6.88;;;;;;;-2.63;96.97;101677.94;7398316;19;20081;-69
2023/03/16 05:55:56;;;;;;;10.88;6.93;;;;;;;-2.62;97.10;101682.28;7398047;19;20387;-70
2023/03/16 05:58:24;;;;;;;13.98;6.85;;;;;;;-2.58;97.36;101680.75;7395761;19;20082;-66
2023/03/16 06:00:54;;;;;;;13.57;6.65;;;;;;;-2.57;97.02;101683.38;7396616;19;20035;-67
2023/03/16 06:03:22;;;;;;;10.88;6.70;;;;;;;-2.56;96.90;101682.59;7397611;19;20022;-67
2023/03/16 06:05:53;;;;;;;10.52;6.50;;;;;;;-2.54;96.80;101687.78;7398094;19;20078;-68
2023/03/16 06:08:22;;;;;;;22.92;13.18;;;;;;;-2.52;96.66;101688.75;7398291;19;20027;-70
2023/03/16 06:10:50;;;;;;;29.42;15.57;;;;;;;-2.50;96.75;101690.56;7396311;19;20085;-68
2023/03/16 06:13:18;;;;;;;12.32;6.80;;;;;;;-2.46;96.79;101683.91;7397861;19;20074;-67
2023/03/16 06:15:47;;;;;;;12.35;6.68;;;;;;;-2.43;96.62;101683.16;7397656;19;20502;-67
2023/03/16 06:18:15;;;;;;;12.95;6.35;;;;;;;-2.41;96.28;101681.53;7396935;19;20014;-68
2023/03/16 06:20:45;;;;;;;13.07;7.38;;;;;;;-2.37;96.39;101686.03;7394711;19;20511;-68
2023/03/16 06:23:19;;;;;;;12.07;7.05;;;;;;;-2.34;96.49;101676.75;7397399;19;20374;-68
2023/03/16 06:25:49;;;;;;;9.20;6.65;;;;;;;-2.31;96.53;101679.47;7397993;19;20014;-68
2023/03/16 06:28:17;;;;;;;14.73;7.20;;;;;;;-2.24;96.79;101692.59;7397620;19;20082;-66
2023/03/16 06:30:45;;;;;;;22.30;10.80;;;;;;;-2.21;96.86;101688.47;7397201;19;20058;-67
2023/03/16 06:33:14;;;;;;;16.45;7.97;;;;;;;-2.17;97.08;101680.09;7397056;19;20026;-68
2023/03/16 06:35:43;;;;;;;12.88;6.97;;;;;;;-2.09;96.88;101689.84;7395216;19;20007;-69
2023/03/16 06:38:11;;;;;;;15.70;7.45;;;;;;;-2.03;96.72;101693.56;7397559;19;20031;-69
2023/03/16 06:40:42;;;;;;;12.55;7.07;;;;;;;-1.98;96.72;101696.34;7397437;19;20177;-68
2023/03/16 06:43:11;;;;;;;13.50;6.57;;;;;;;-1.92;96.84;101694.06;7397247;19;20025;-67
2023/03/16 06:45:40;;;;;;;14.07;7.88;;;;;;;-1.86;96.75;101706.31;7397055;19;20541;-68
2023/03/16 06:48:09;;;;;;;14.88;7.32;;;;;;;-1.77;96.65;101709.28;7395119;19;20018;-68
2023/03/16 06:50:37;;;;;;;12.82;7.88;;;;;;;-1.69;96.97;101712.22;7398755;19;20019;-68
2023/03/16 06:53:06;;;;;;;14.20;9.35;;;;;;;-1.62;96.59;101714.22;7395393;19;20082;-69
2023/03/16 06:55:34;;;;;;;13.57;8.10;;;;;;;-1.54;96.00;101710.28;7395463;19;20023;-68
2023/03/16 06:58:05;;;;;;;11.50;7.53;;;;;;;-1.46;96.16;101714.91;7397780;19;20094;-68
2023/03/16 07:00:34;;;;;;;16.10;7.95;;;;;;;-1.38;96.21;101716.09;7395210;19;20078;-68
2023/03/16 07:03:03;;;;;;;12.55;8.18;;;;;;;-1.31;96.51;101712.97;7396562;19;20092;-68
2023/03/16 07:05:31;;;;;;;12.43;7.93;;;;;;;-1.22;96.23;101715.06;7396951;19;20022;-68
2023/03/16 07:08:00;;;;;;;16.70;7.95;;;;;;;-1.16;96.00;101728.22;7395672;19;20355;-68
2023/03/16 07:10:29;;;;;;;11.13;6.80;;;;;;;-1.09;96.15;101722.47;7395792;19;20078;-69
2023/03/16 07:12:57;;;;;;;13.52;7.38;;;;;;;-1.04;95.29;101727.81;7394541;19;20518;-68
2023/03/16 07:15:28;;;;;;;23.42;10.70;;;;;;;-0.96;95.14;101731.63;7396348;19;20070;-68
2023/03/16 07:17:57;;;;;;;12.98;7.70;;;;;;;-0.89;95.36;101737.88;7396278;19;20090;-68
2023/03/16 07:20:27;;;;;;;10.70;7.43;;;;;;;-0.84;95.41;101739.81;7394589;19;20102;-69
2023/03/16 07:22:55;;;;;;;12.90;7.95;;;;;;;-0.76;95.16;101739.25;7396391;19;20029;-69
2023/03/16 07:25:30;;;;;;;12.27;7.10;;;;;;;-0.71;94.83;101743.81;7395642;19;20014;-69
2023/03/16 07:27:58;;;;;;;10.27;6.80;;;;;;;-0.70;95.09;101739.50;7395292;19;20026;-68
2023/03/16 07:30:29;;;;;;;11.18;7.78;;;;;;;-0.62;95.25;101740.72;7395785;19;20081;-70
2023/03/16 07:32:58;;;;;;;14.25;8.00;;;;;;;-0.59;95.04;101738.25;7394584;19;20078;-69
2023/03/16 07:35:27;;;;;;;14.07;7.40;;;;;;;-0.52;95.05;101749.69;7395703;19;20074;-69
2023/03/16 07:37:55;;;;;;;13.15;7.60;;;;;;;-0.48;94.54;101746.44;7395317;19;20090;-70
2023/03/16 07:40:24;;;;;;;9.05;6.88;;;;;;;-0.46;94.15;101744.75;7394225;19;20022;-72
2023/03/16 07:42:59;;;;;;;10.98;7.07;;;;;;;-0.42;94.14;101753.50;7396009;19;20041;-69
2023/03/16 07:45:30;;;;;;;12.77;8.15;;;;;;;-0.39;94.82;101756.19;7395847;19;20478;-69
2023/03/16 07:47:59;;;;;;;25.35;12.45;;;;;;;-0.35;93.48;101763.25;7395574;19;20018;-69
2023/03/16 07:50:27;;;;;;;16.02;10.18;;;;;;;-0.33;93.64;101766.75;7395349;19;20010;-69
2023/03/16 07:52:56;;;;;;;20.55;13.77;;;;;;;-0.29;94.00;101762.59;7394671;19;20018;-69
2023/03/16 07:55:24;;;;;;;27.95;18.77;;;;;;;-0.25;94.31;101754.16;7395541;19;20081;-70
2023/03/16 07:57:53;;;;;;;40.15;25.63;;;;;;;-0.21;94.52;101756.91;7393933;19;20054;-70
2023/03/16 08:00:23;;;;;;;20.92;13.23;;;;;;;-0.17;93.62;101757.91;7394940;19;20407;-68
2023/03/16 08:02:56;;;;;;;15.82;10.30;;;;;;;-0.10;94.02;101753.88;7394834;19;20053;-68
2023/03/16 08:05:24;;;;;;;13.33;9.37;;;;;;;-0.02;93.80;101760.22;7395616;19;20014;-70
2023/03/16 08:07:54;;;;;;;14.88;9.32;;;;;;;0.05;92.68;101763.91;7393813;19;20018;-68
2023/03/16 08:10:23;;;;;;;9.77;7.32;;;;;;;0.12;93.27;101766.75;7394806;19;20015;-68
2023/03/16 08:12:53;;;;;;;11.00;8.25;;;;;;;0.18;92.76;101768.72;7394620;19;20078;-69
2023/03/16 08:15:21;;;;;;;14.10;7.80;;;;;;;0.24;93.23;101768.94;7395295;19;20035;-74
2023/03/16 08:17:51;;;;;;;11.80;6.53;;;;;;;0.29;91.76;101769.09;7394837;19;20014;-72
2023/03/16 08:20:22;;;;;;;11.57;7.32;;;;;;;0.35;91.93;101774.47;7395235;19;20074;-73
2023/03/16 08:22:51;;;;;;;14.05;6.55;;;;;;;0.40;90.85;101772.94;7402006;19;20483;-71
2023/03/16 08:25:19;;;;;;;10.45;6.20;;;;;;;0.45;89.74;101776.56;7402462;19;20042;-69
2023/03/16 08:27:49;;;;;;;7.95;5.30;;;;;;;0.53;89.50;101781.16;7399827;19;20017;-68
2023/03/16 08:30:18;;;;;;;7.80;5.35;;;;;;;0.56;90.65;101776.09;7401166;19;20024;-69
2023/03/16 08:32:47;;;;;;;11.80;6.88;;;;;;;0.61;90.96;101783.19;7400553;19;20032;-72
2023/03/16 08:35:16;;;;;;;8.40;6.22;;;;;;;0.69;90.11;101783.44;7399581;19;20026;-71
2023/03/16 08:37:48;;;;;;;10.45;6.38;;;;;;;0.74;90.96;101779.31;7398561;19;20019;-70
2023/03/16 08:40:19;;;;;;;9.93;5.60;;;;;;;0.80;90.07;101786.44;7401974;19;20011;-71
2023/03/16 08:42:49;;;;;;;11.48;5.63;;;;;;;0.84;89.53;101785.69;7401388;19;20034;-73
2023/03/16 08:45:18;;;;;;;10.77;5.88;;;;;;;0.89;90.22;101783.28;7401594;19;20021;-71
2023/03/16 08:47:48;;;;;;;11.50;5.85;;;;;;;0.93;89.42;101788.59;7399475;19;20378;-69
2023/03/16 08:50:18;;;;;;;7.35;5.90;;;;;;;1.00;89.58;101786.22;7401305;19;20046;-69
2023/03/16 08:52:50;;;;;;;11.98;6.65;;;;;;;1.05;90.51;101785.56;7401437;19;20022;-70
2023/03/16 08:55:19;;;;;;;14.88;6.22;;;;;;;1.10;89.69;101789.19;7402395;19;20018;-69
2023/03/16 08:57:47;;;;;;;11.25;6.13;;;;;;;1.17;88.92;101790.25;7401379;19;20549;-71
2023/03/16 09:00:17;;;;;;;14.52;5.50;;;;;;;1.23;90.52;101789.59;7401240;19;20513;-72
2023/03/16 09:02:46;;;;;;;10.35;5.40;;;;;;;1.28;89.72;101788.91;7401136;19;20019;-73
2023/03/16 09:05:17;;;;;;;11.98;6.53;;;;;;;1.35;90.34;101800.34;7401416;19;20021;-69
2023/03/16 09:07:45;;;;;;;13.30;5.50;;;;;;;1.42;89.93;101799.72;7399883;19;20025;-72
2023/03/16 09:10:17;;;;;;;13.57;5.82;;;;;;;1.50;89.40;101801.69;7401431;19;20014;-74
2023/03/16 09:12:46;;;;;;;11.35;5.22;;;;;;;1.56;88.21;101795.00;7401350;19;20035;-71
2023/03/16 09:15:15;;;;;;;8.93;4.90;;;;;;;1.65;88.33;101799.59;7401616;19;20023;-70
2023/03/16 09:17:44;;;;;;;10.40;4.93;;;;;;;1.73;88.62;101802.41;7401656;19;20035;-70
2023/03/16 09:20:15;;;;;;;12.00;5.10;;;;;;;1.83;88.43;101803.59;7398403;19;20014;-69
2023/03/16 09:22:43;;;;;;;9.90;5.13;;;;;;;1.91;88.53;101807.31;7398137;19;20078;-69
2023/03/16 09:25:13;;;;;;;7.90;4.40;;;;;;;1.98;86.46;101800.59;7400807;19;20018;-69
2023/03/16 09:27:44;;;;;;;9.38;5.28;;;;;;;2.05;86.06;101800.81;7399437;19;20018;-70
2023/03/16 09:30:15;;;;;;;18.38;5.53;;;;;;;2.13;86.24;101797.59;7401100;19;20018;-69
2023/03/16 09:32:47;;;;;;;11.48;5.53;;;;;;;2.24;87.13;101794.47;7398435;19;20431;-71
2023/03/16 09:35:16;;;;;;;8.52;5.10;;;;;;;2.35;86.34;101796.50;7400744;19;20018;-70
2023/03/16 09:37:44;;;;;;;10.15;5.00;;;;;;;2.44;87.14;101795.06;7400018;19;20018;-70
2023/03/16 09:40:23;;;;;;;10.90;5.75;;;;;;;2.54;85.85;101797.91;7400503;19;20018;-70
2023/03/16 09:43:08;;;;;;;9.18;4.85;;;;;;;2.64;83.18;101794.75;7400041;19;20028;-70
2023/03/16 09:45:44;;;;;;;13.93;5.00;;;;;;;2.74;85.36;101796.78;7400230;19;20490;-70
2023/03/16 09:48:13;;;;;;;12.98;6.18;;;;;;;2.85;85.47;101799.63;7398134;19;20015;-69
2023/03/16 09:50:43;;;;;;;7.82;4.47;;;;;;;2.95;83.71;101802.50;7399600;19;20500;-70
2023/03/16 09:53:20;;;;;;;6.82;3.80;;;;;;;3.03;83.72;101807.06;7399594;19;20086;-71
2023/03/16 09:55:54;;;;;;;10.30;4.80;;;;;;;3.15;82.48;101808.22;7400195;19;20022;-70
2023/03/16 09:58:26;;;;;;;10.33;3.97;;;;;;;3.25;82.46;101805.88;7400736;19;20419;-70
2023/03/16 10:01:04;;;;;;;6.20;3.30;;;;;;;3.34;80.60;101805.22;7399850;19;20022;-68
2023/03/16 10:03:45;;;;;;;6.45;2.58;;;;;;;3.43;78.24;101799.41;7398549;19;20427;-70
2023/03/16 10:06:15;;;;;;;6.28;2.72;;;;;;;3.51;76.59;101802.16;7399265;19;20018;-69
2023/03/16 10:08:46;;;;;;;5.53;2.38;;;;;;;3.60;78.96;101789.41;7397414;19;20011;-69
2023/03/16 10:11:28;;;;;;;8.63;2.65;;;;;;;3.67;72.07;101796.50;7397028;19;20094;-70
2023/03/16 10:14:06;;;;;;;7.63;3.00;;;;;;;3.75;73.58;101791.50;7397356;19;20019;-70
2023/03/16 10:16:39;;;;;;;7.57;3.30;;;;;;;3.84;76.99;101789.13;7395471;19;20011;-69
2023/03/16 10:19:15;;;;;;;8.13;3.65;;;;;;;3.92;74.74;101787.56;7397052;19;20095;-70
2023/03/16 10:21:44;;;;;;;9.57;3.20;;;;;;;4.03;76.50;101781.72;7398960;19;20021;-70
2023/03/16 10:24:26;;;;;;;6.45;3.10;;;;;;;4.10;72.56;101778.44;7396924;19;20029;-70
2023/03/16 10:26:59;;;;;;;6.75;2.60;;;;;;;4.21;73.46;101786.47;7396627;19;20070;-69
2023/03/16 10:29:35;;;;;;;4.75;2.22;;;;;;;4.30;76.18;101783.19;7396652;19;20026;-71
2023/03/16 10:32:13;;;;;;;6.43;2.15;;;;;;;4.39;70.71;101789.44;7398130;19;20014;-70
2023/03/16 10:34:42;;;;;;;5.03;2.28;;;;;;;4.44;74.74;101779.13;7396598;19;20070;-69
2023/03/16 10:37:14;;;;;;;10.38;3.17;;;;;;;4.52;73.29;101774.09;7397771;19;20090;-70
2023/03/16 10:39:45;;;;;;;5.40;1.88;;;;;;;4.59;75.77;101768.19;7397873;19;20086;-68
2023/03/16 10:42:20;;;;;;;7.55;2.38;;;;;;;4.64;69.36;101774.34;7395123;19;20486;-70
2023/03/16 10:44:51;;;;;;;5.93;1.40;;;;;;;4.71;68.34;101773.63;7392473;19;20018;-69
2023/03/16 10:47:21;;;;;;;4.60;1.30;;;;;;;4.77;68.45;101772.84;7398450;19;20140;-69
2023/03/16 10:49:50;;;;;;;5.13;1.27;;;;;;;4.84;70.17;101776.41;7397443;19;20018;-69
2023/03/16 10:52:22;;;;;;;4.05;1.92;;;;;;;4.89;68.63;101774.78;7397652;19;20032;-70
2023/03/16 10:54:53;;;;;;;3.25;1.42;;;;;;;4.96;68.27;101774.03;7396623;19;20011;-70
2023/03/16 10:57:34;;;;;;;6.25;1.50;;;;;;;5.00;57.61;101778.44;7396168;19;20018;-70
2023/03/16 11:00:14;;;;;;;3.38;1.23;;;;;;;5.06;63.92;101781.16;7396991;19;20006;-73
2023/03/16 11:02:44;;;;;;;4.18;1.48;;;;;;;5.12;67.91;101772.59;7397196;19;20020;-70
2023/03/16 11:05:14;;;;;;;5.07;1.40;;;;;;;5.16;68.16;101766.59;7397283;19;20023;-70
2023/03/16 11:07:50;;;;;;;3.70;1.20;;;;;;;5.19;66.08;101769.28;7396364;19;20015;-70
2023/03/16 11:10:37;;;;;;;6.65;1.15;;;;;;;5.27;57.68;101755.50;7395278;19;20055;-71
2023/03/16 11:13:13;;;;;;;3.92;1.17;;;;;;;5.37;61.54;101752.19;7396592;19;20021;-70
2023/03/16 11:15:50;;;;;;;5.22;1.30;;;;;;;5.48;56.42;101750.63;7395370;19;20015;-71
2023/03/16 11:18:29;;;;;;;3.40;1.30;;;;;;;5.64;56.69;101758.69;7397666;19;20022;-70
2023/03/16 11:20:59;;;;;;;3.20;1.05;;;;;;;5.74;60.13;101752.75;7394991;19;20478;-72
2023/03/16 11:23:34;;;;;;;4.38;1.50;;;;;;;5.82;60.53;101747.66;7395800;19;20021;-69
2023/03/16 11:26:07;;;;;;;2.85;1.58;;;;;;;5.87;61.21;101749.44;7397474;19;20022;-71
2023/03/16 11:28:40;;;;;;;8.88;3.08;;;;;;;5.91;62.09;101739.09;7395791;19;20022;-70
2023/03/16 11:31:20;;;;;;;5.32;2.22;;;;;;;5.93;59.95;101734.78;7397838;19;20022;-70
2023/03/16 11:33:50;;;;;;;5.85;1.95;;;;;;;5.95;59.94;101726.13;7394384;19;20435;-70
2023/03/16 11:36:34;;;;;;;6.10;2.40;;;;;;;6.00;59.99;101721.91;7394257;19;20011;-70